Livadi — 9HA3220 — position and weather

sailwx.info

Track history (hours):
 
Tides and Currents Weather Stations Pressure Air Temp Water Temp Dewpoint Dewpoint Depression Visibility Wind Speed Wind Dir Waves Ship Positions

Livadi

Last reported at 2018-Jul-14 22:31 UTC. Time now 2018-Jul-20 18:19 UTC.
Position N 35°24' W 025°19'.

Length 179 m; draft 8.9 m.

Type: Cargo ship. MMSI: 229310000.

Date/timePositionNaut miles runAvg speedWind from/ knotsBaromVisibWave heightAir tempDewpointWater temp
2018-Jul-14 22:31N 35°24' W 025°19'212.9
2018-Jul-14 22:24N 35°24' W 025°17'1212.5
2018-Jul-14 21:25N 35°25' W 025°02'512.7
2018-Jul-14 21:00N 35°26' W 024°56'912.4
2018-Jul-14 20:14N 35°27' W 024°44'612.9
2018-Jul-14 19:48N 35°28' W 024°37'  
2018-Jul-11 15:19N 35°59' W 005°33'3 8.4
2018-Jul-11 14:58N 35°60' W 005°30'4 8.9
2018-Jul-11 14:30N 36°02' W 005°25'510.2
2018-Jul-11 14:00N 36°06' W 005°23'2 0.7
2018-Jul-11 11:34N 36°08' W 005°22'0 0.1
2018-Jul-11 11:16N 36°08' W 005°22'0 0.0
2018-Jul-11 10:16N 36°08' W 005°22'0 0.1
2018-Jul-11 09:55N 36°08' W 005°22'0 0.3
2018-Jul-11 09:22N 36°08' W 005°22'0 0.3
2018-Jul-11 08:58N 36°08' W 005°22'0 0.1
2018-Jul-11 08:25N 36°08' W 005°22'0 0.1
2018-Jul-11 07:58N 36°08' W 005°22'0 0.0
2018-Jul-11 07:28N 36°08' W 005°22'0 0.0
2018-Jul-11 06:52N 36°08' W 005°22'0 0.0
2018-Jul-11 05:58N 36°08' W 005°22'0 0.0
2018-Jul-11 05:28N 36°08' W 005°22'0 0.1
2018-Jul-11 04:58N 36°08' W 005°22'0 0.1
2018-Jul-11 04:28N 36°08' W 005°22'0 0.1
2018-Jul-11 03:58N 36°08' W 005°22'0 0.1
2018-Jul-11 03:28N 36°08' W 005°22'0 0.5
2018-Jul-11 03:01N 36°08' W 005°22'3 5.3
2018-Jul-11 02:31N 36°05' W 005°21'2 3.4
2018-Jul-11 02:00N 36°05' W 005°19'2 4.6
2018-Jul-11 01:30N 36°06' W 005°16'3 5.5
2018-Jul-11 01:00N 36°06' W 005°12'3 6.5
2018-Jul-11 00:30N 36°07' W 005°09'0 0.9
2018-Jul-11 00:00N 36°07' W 005°09'2 2.8
2018-Jul-10 23:26N 36°09' W 005°09'1 1.3
2018-Jul-10 23:00N 36°09' W 005°08'0 0.6
2018-Jul-10 22:31N 36°09' W 005°08'0 0.8
2018-Jul-10 22:01N 36°09' W 005°09'0 0.7
2018-Jul-10 21:31N 36°09' W 005°09'2 3.5
2018-Jul-10 21:00N 36°10' W 005°07'4 8.7
2018-Jul-10 20:31N 36°10' W 005°02'4 6.9
2018-Jul-10 19:58N 36°10' W 004°57'1 1.3
2018-Jul-10 19:28N 36°10' W 004°58'1 1.4
2018-Jul-10 19:00N 36°09' W 004°59'2 1.5
2018-Jul-10 17:29N 36°08' W 005°02'5 1.4
2018-Jul-10 13:37N 36°07' W 005°08'0 0.5
2018-Jul-10 13:30N 36°07' W 005°08'14910.0
2018-Jul-09 22:33N 36°22' W 002°04'411.9
2018-Jul-09 22:13N 36°22' W 001°59'2311.4
2018-Jul-09 20:12N 36°27' W 001°31'310.9
2018-Jul-09 19:55N 36°28' W 001°27'2112.5
2018-Jul-09 18:17N 36°32' W 001°02'1213.2
2018-Jul-09 17:22N 36°34' W 000°48'513.3
2018-Jul-09 16:59N 36°35' W 000°41'613.3
2018-Jul-09 16:30N 36°37' W 000°33'913.3
2018-Jul-09 15:49N 36°39' W 000°22'513.1
2018-Jul-09 15:28N 36°40' W 000°17'613.0
2018-Jul-09 14:59N 36°41' W 000°09'912.8
2018-Jul-09 14:16N 36°43' E 000°02'312.9
2018-Jul-09 14:00N 36°43' E 000°06'612.9
2018-Jul-09 13:31N 36°45' E 000°14'712.9
2018-Jul-09 13:00N 36°46' E 000°22'612.8
2018-Jul-09 12:31N 36°47' E 000°30'612.8
2018-Jul-09 12:00N 36°49' E 000°38'712.7
2018-Jul-09 11:27N 36°50' E 000°46'612.7
2018-Jul-09 11:00N 36°51' E 000°53'612.7
2018-Jul-09 10:29N 36°53' E 001°01'2412.4
2018-Jul-09 08:32N 36°58' E 001°31'112.0
2018-Jul-09 08:27N 36°58' E 001°32'611.8
2018-Jul-09 07:55N 36°59' E 001°40'511.6
2018-Jul-09 07:31N 37°00' E 001°45'611.5
2018-Jul-09 07:00N 37°01' E 001°52'611.3
2018-Jul-09 06:31N 37°02' E 001°59'611.3
2018-Jul-09 06:01N 37°04' E 002°06'611.5
2018-Jul-09 05:29N 37°05' E 002°14'611.9
2018-Jul-09 05:00N 37°06' E 002°21'612.3
2018-Jul-09 04:30N 37°07' E 002°28'612.6
2018-Jul-09 04:00N 37°09' E 002°36'612.6
2018-Jul-09 03:30N 37°10' E 002°44'612.6
2018-Jul-09 03:00N 37°11' E 002°51'612.7
2018-Jul-09 02:30N 37°13' E 002°59'713.0
2018-Jul-09 01:59N 37°14' E 003°08'813.1
2018-Jul-09 01:23N 37°16' E 003°17'813.3
2018-Jul-09 00:46N 37°17' E 003°27'1413.3
2018-Jul-08 23:41N 37°20' E 003°45'413.4
2018-Jul-08 23:24N 37°20' E 003°50'513.4
2018-Jul-08 23:01N 37°20' E 003°57'1013.3
2018-Jul-08 22:15N 37°21' E 004°09'513.1
2018-Jul-08 21:51N 37°21' E 004°16'512.9
2018-Jul-08 21:29N 37°22' E 004°22'612.8
2018-Jul-08 21:00N 37°22' E 004°29'712.8
2018-Jul-08 20:27N 37°23' E 004°38'1012.9
2018-Jul-08 19:43N 37°23' E 004°50'312.8
2018-Jul-08 19:30N 37°23' E 004°54'613.0
2018-Jul-08 19:00N 37°24' E 005°02'713.2
2018-Jul-08 18:29N 37°24' E 005°10'613.3
2018-Jul-08 18:01N 37°25' E 005°18'713.4
2018-Jul-08 17:30N 37°25' E 005°27'713.4
2018-Jul-08 17:00N 37°25' E 005°35'713.4
2018-Jul-08 16:29N 37°26' E 005°44'36112.3
2018-Jul-07 11:05N 36°41' E 013°13'112.2
2018-Jul-07 11:00N 36°41' E 013°14'612.2
2018-Jul-07 10:30N 36°40' E 013°22'612.2
2018-Jul-07 10:01N 36°39' E 013°29'612.2
2018-Jul-07 09:31N 36°37' E 013°36'612.0
2018-Jul-07 09:00N 36°35' E 013°43'612.0
2018-Jul-07 08:30N 36°33' E 013°50'612.2
2018-Jul-07 08:00N 36°31' E 013°57'612.1
2018-Jul-07 07:30N 36°29' E 014°05'612.1
2018-Jul-07 07:00N 36°27' E 014°12'612.1
2018-Jul-07 06:30N 36°25' E 014°19'611.8
2018-Jul-07 06:01N 36°24' E 014°26'611.8
2018-Jul-07 05:31N 36°24' E 014°33'611.7
2018-Jul-07 05:00N 36°23' E 014°41'612.0
2018-Jul-07 04:31N 36°23' E 014°48'612.1
2018-Jul-07 04:00N 36°22' E 014°56'43712.7
2018-Jul-05 17:29N 35°43' E 023°54'  
Track history (hours):
 
Tides and Currents Weather Stations Pressure Air Temp Water Temp Dewpoint Dewpoint Depression Visibility Wind Speed Wind Dir Waves Ship Positions

Livadi

Last reported at 2018-Jul-14 22:31 UTC. Time now 2018-Jul-20 18:19 UTC.
Position N 35°24' W 025°19'.

Length 179 m; draft 8.9 m.

Type: Cargo ship. MMSI: 229310000.

Date/timePositionNaut miles runAvg speedWind from/ knotsBaromVisibWave heightAir tempDewpointWater temp
2018-Jul-14 22:31N 35°24' W 025°19'212.9
2018-Jul-14 22:24N 35°24' W 025°17'1212.5
2018-Jul-14 21:25N 35°25' W 025°02'512.7
2018-Jul-14 21:00N 35°26' W 024°56'912.4
2018-Jul-14 20:14N 35°27' W 024°44'612.9
2018-Jul-14 19:48N 35°28' W 024°37'  
2018-Jul-11 15:19N 35°59' W 005°33'3 8.4
2018-Jul-11 14:58N 35°60' W 005°30'4 8.9
2018-Jul-11 14:30N 36°02' W 005°25'510.2
2018-Jul-11 14:00N 36°06' W 005°23'2 0.7
2018-Jul-11 11:34N 36°08' W 005°22'0 0.1
2018-Jul-11 11:16N 36°08' W 005°22'0 0.0
2018-Jul-11 10:16N 36°08' W 005°22'0 0.1
2018-Jul-11 09:55N 36°08' W 005°22'0 0.3
2018-Jul-11 09:22N 36°08' W 005°22'0 0.3
2018-Jul-11 08:58N 36°08' W 005°22'0 0.1
2018-Jul-11 08:25N 36°08' W 005°22'0 0.1
2018-Jul-11 07:58N 36°08' W 005°22'0 0.0
2018-Jul-11 07:28N 36°08' W 005°22'0 0.0
2018-Jul-11 06:52N 36°08' W 005°22'0 0.0
2018-Jul-11 05:58N 36°08' W 005°22'0 0.0
2018-Jul-11 05:28N 36°08' W 005°22'0 0.1
2018-Jul-11 04:58N 36°08' W 005°22'0 0.1
2018-Jul-11 04:28N 36°08' W 005°22'0 0.1
2018-Jul-11 03:58N 36°08' W 005°22'0 0.1
2018-Jul-11 03:28N 36°08' W 005°22'0 0.5
2018-Jul-11 03:01N 36°08' W 005°22'3 5.3
2018-Jul-11 02:31N 36°05' W 005°21'2 3.4
2018-Jul-11 02:00N 36°05' W 005°19'2 4.6
2018-Jul-11 01:30N 36°06' W 005°16'3 5.5
2018-Jul-11 01:00N 36°06' W 005°12'3 6.5
2018-Jul-11 00:30N 36°07' W 005°09'0 0.9
2018-Jul-11 00:00N 36°07' W 005°09'2 2.8
2018-Jul-10 23:26N 36°09' W 005°09'1 1.3
2018-Jul-10 23:00N 36°09' W 005°08'0 0.6
2018-Jul-10 22:31N 36°09' W 005°08'0 0.8
2018-Jul-10 22:01N 36°09' W 005°09'0 0.7
2018-Jul-10 21:31N 36°09' W 005°09'2 3.5
2018-Jul-10 21:00N 36°10' W 005°07'4 8.7
2018-Jul-10 20:31N 36°10' W 005°02'4 6.9
2018-Jul-10 19:58N 36°10' W 004°57'1 1.3
2018-Jul-10 19:28N 36°10' W 004°58'1 1.4
2018-Jul-10 19:00N 36°09' W 004°59'2 1.5
2018-Jul-10 17:29N 36°08' W 005°02'5 1.4
2018-Jul-10 13:37N 36°07' W 005°08'0 0.5
2018-Jul-10 13:30N 36°07' W 005°08'14910.0
2018-Jul-09 22:33N 36°22' W 002°04'411.9
2018-Jul-09 22:13N 36°22' W 001°59'2311.4
2018-Jul-09 20:12N 36°27' W 001°31'310.9
2018-Jul-09 19:55N 36°28' W 001°27'2112.5
2018-Jul-09 18:17N 36°32' W 001°02'1213.2
2018-Jul-09 17:22N 36°34' W 000°48'513.3
2018-Jul-09 16:59N 36°35' W 000°41'613.3
2018-Jul-09 16:30N 36°37' W 000°33'913.3
2018-Jul-09 15:49N 36°39' W 000°22'513.1
2018-Jul-09 15:28N 36°40' W 000°17'613.0
2018-Jul-09 14:59N 36°41' W 000°09'912.8
2018-Jul-09 14:16N 36°43' E 000°02'312.9
2018-Jul-09 14:00N 36°43' E 000°06'612.9
2018-Jul-09 13:31N 36°45' E 000°14'712.9
2018-Jul-09 13:00N 36°46' E 000°22'612.8
2018-Jul-09 12:31N 36°47' E 000°30'612.8
2018-Jul-09 12:00N 36°49' E 000°38'712.7
2018-Jul-09 11:27N 36°50' E 000°46'612.7
2018-Jul-09 11:00N 36°51' E 000°53'612.7
2018-Jul-09 10:29N 36°53' E 001°01'2412.4
2018-Jul-09 08:32N 36°58' E 001°31'112.0
2018-Jul-09 08:27N 36°58' E 001°32'611.8
2018-Jul-09 07:55N 36°59' E 001°40'511.6
2018-Jul-09 07:31N 37°00' E 001°45'611.5
2018-Jul-09 07:00N 37°01' E 001°52'611.3
2018-Jul-09 06:31N 37°02' E 001°59'611.3
2018-Jul-09 06:01N 37°04' E 002°06'611.5
2018-Jul-09 05:29N 37°05' E 002°14'611.9
2018-Jul-09 05:00N 37°06' E 002°21'612.3
2018-Jul-09 04:30N 37°07' E 002°28'612.6
2018-Jul-09 04:00N 37°09' E 002°36'612.6
2018-Jul-09 03:30N 37°10' E 002°44'612.6
2018-Jul-09 03:00N 37°11' E 002°51'612.7
2018-Jul-09 02:30N 37°13' E 002°59'713.0
2018-Jul-09 01:59N 37°14' E 003°08'813.1
2018-Jul-09 01:23N 37°16' E 003°17'813.3
2018-Jul-09 00:46N 37°17' E 003°27'1413.3
2018-Jul-08 23:41N 37°20' E 003°45'413.4
2018-Jul-08 23:24N 37°20' E 003°50'513.4
2018-Jul-08 23:01N 37°20' E 003°57'1013.3
2018-Jul-08 22:15N 37°21' E 004°09'513.1
2018-Jul-08 21:51N 37°21' E 004°16'512.9
2018-Jul-08 21:29N 37°22' E 004°22'612.8
2018-Jul-08 21:00N 37°22' E 004°29'712.8
2018-Jul-08 20:27N 37°23' E 004°38'1012.9
2018-Jul-08 19:43N 37°23' E 004°50'312.8
2018-Jul-08 19:30N 37°23' E 004°54'613.0
2018-Jul-08 19:00N 37°24' E 005°02'713.2
2018-Jul-08 18:29N 37°24' E 005°10'613.3
2018-Jul-08 18:01N 37°25' E 005°18'713.4
2018-Jul-08 17:30N 37°25' E 005°27'713.4
2018-Jul-08 17:00N 37°25' E 005°35'713.4
2018-Jul-08 16:29N 37°26' E 005°44'36112.3
2018-Jul-07 11:05N 36°41' E 013°13'112.2
2018-Jul-07 11:00N 36°41' E 013°14'612.2
2018-Jul-07 10:30N 36°40' E 013°22'612.2
2018-Jul-07 10:01N 36°39' E 013°29'612.2
2018-Jul-07 09:31N 36°37' E 013°36'612.0
2018-Jul-07 09:00N 36°35' E 013°43'612.0
2018-Jul-07 08:30N 36°33' E 013°50'612.2
2018-Jul-07 08:00N 36°31' E 013°57'612.1
2018-Jul-07 07:30N 36°29' E 014°05'612.1
2018-Jul-07 07:00N 36°27' E 014°12'612.1
2018-Jul-07 06:30N 36°25' E 014°19'611.8
2018-Jul-07 06:01N 36°24' E 014°26'611.8
2018-Jul-07 05:31N 36°24' E 014°33'611.7
2018-Jul-07 05:00N 36°23' E 014°41'612.0
2018-Jul-07 04:31N 36°23' E 014°48'612.1
2018-Jul-07 04:00N 36°22' E 014°56'43712.7
2018-Jul-05 17:29N 35°43' E 023°54'  

Dump ship's entire track history